sensor_id;sensor_type;location;lat;lon;timestamp;pressure;altitude;pressure_sealevel;temperature;humidity
66560;BME280;53413;49.878;8.142;2023-07-09T00:01:49;100246.44;;;17.56;100.00
66560;BME280;53413;49.878;8.142;2023-07-09T00:04:15;100244.09;;;17.51;100.00
66560;BME280;53413;49.878;8.142;2023-07-09T00:06:40;100252.34;;;17.46;100.00
66560;BME280;53413;49.878;8.142;2023-07-09T00:09:12;100256.75;;;17.46;100.00
66560;BME280;53413;49.878;8.142;2023-07-09T00:11:38;100252.63;;;17.42;100.00
66560;BME280;53413;49.878;8.142;2023-07-09T00:14:05;100250.06;;;17.40;100.00
66560;BME280;53413;49.878;8.142;2023-07-09T00:16:31;100254.69;;;17.36;100.00
66560;BME280;53413;49.878;8.142;2023-07-09T00:18:56;100255.00;;;17.32;100.00
66560;BME280;53413;49.878;8.142;2023-07-09T00:21:21;100249.13;;;17.27;100.00
66560;BME280;53413;49.878;8.142;2023-07-09T00:23:47;100255.41;;;17.26;100.00
66560;BME280;53413;49.878;8.142;2023-07-09T00:26:15;100255.47;;;17.24;100.00
66560;BME280;53413;49.878;8.142;2023-07-09T00:28:41;100252.94;;;17.22;100.00
66560;BME280;53413;49.878;8.142;2023-07-09T00:31:16;100251.88;;;17.25;100.00
66560;BME280;53413;49.878;8.142;2023-07-09T00:33:45;100260.69;;;17.26;100.00
66560;BME280;53413;49.878;8.142;2023-07-09T00:36:22;100255.41;;;17.26;100.00
66560;BME280;53413;49.878;8.142;2023-07-09T00:38:49;100267.00;;;17.23;100.00
66560;BME280;53413;49.878;8.142;2023-07-09T00:41:19;100269.00;;;17.19;100.00
66560;BME280;53413;49.878;8.142;2023-07-09T00:43:46;100255.19;;;17.14;100.00
66560;BME280;53413;49.878;8.142;2023-07-09T00:48:56;100264.09;;;17.13;100.00
66560;BME280;53413;49.878;8.142;2023-07-09T00:51:24;100258.97;;;17.10;100.00
66560;BME280;53413;49.878;8.142;2023-07-09T00:53:55;100253.75;;;17.08;100.00
66560;BME280;53413;49.878;8.142;2023-07-09T00:56:44;100251.88;;;17.11;100.00
66560;BME280;53413;49.878;8.142;2023-07-09T00:59:17;100254.16;;;17.17;100.00
66560;BME280;53413;49.878;8.142;2023-07-09T01:01:43;100251.41;;;17.18;100.00
66560;BME280;53413;49.878;8.142;2023-07-09T01:04:12;100259.47;;;17.17;100.00
66560;BME280;53413;49.878;8.142;2023-07-09T01:06:51;100256.69;;;17.18;100.00
66560;BME280;53413;49.878;8.142;2023-07-09T01:09:17;100255.94;;;17.16;100.00
66560;BME280;53413;49.878;8.142;2023-07-09T01:11:43;100256.06;;;17.15;100.00
66560;BME280;53413;49.878;8.142;2023-07-09T01:14:13;100255.94;;;17.16;100.00
66560;BME280;53413;49.878;8.142;2023-07-09T01:16:48;100258.41;;;17.19;100.00
66560;BME280;53413;49.878;8.142;2023-07-09T01:19:14;100257.66;;;17.17;100.00
66560;BME280;53413;49.878;8.142;2023-07-09T01:21:42;100259.53;;;17.15;100.00
66560;BME280;53413;49.878;8.142;2023-07-09T01:24:16;100255.41;;;17.11;100.00
66560;BME280;53413;49.878;8.142;2023-07-09T01:27:01;100259.94;;;17.09;100.00
66560;BME280;53413;49.878;8.142;2023-07-09T01:29:30;100267.22;;;17.05;100.00
66560;BME280;53413;49.878;8.142;2023-07-09T01:31:57;100266.56;;;17.02;100.00
66560;BME280;53413;49.878;8.142;2023-07-09T01:34:22;100267.50;;;17.01;100.00
66560;BME280;53413;49.878;8.142;2023-07-09T01:36:47;100263.22;;;16.98;100.00
66560;BME280;53413;49.878;8.142;2023-07-09T01:39:13;100263.44;;;16.95;100.00
66560;BME280;53413;49.878;8.142;2023-07-09T01:41:38;100265.34;;;16.91;100.00
66560;BME280;53413;49.878;8.142;2023-07-09T01:44:04;100263.75;;;16.89;100.00
66560;BME280;53413;49.878;8.142;2023-07-09T01:46:30;100260.44;;;16.85;100.00
66560;BME280;53413;49.878;8.142;2023-07-09T01:48:55;100257.97;;;16.82;100.00
66560;BME280;53413;49.878;8.142;2023-07-09T01:51:21;100262.50;;;16.80;100.00
66560;BME280;53413;49.878;8.142;2023-07-09T01:53:49;100267.16;;;16.76;100.00
66560;BME280;53413;49.878;8.142;2023-07-09T01:56:14;100266.47;;;16.73;100.00
66560;BME280;53413;49.878;8.142;2023-07-09T01:58:40;100267.44;;;16.72;100.00
66560;BME280;53413;49.878;8.142;2023-07-09T02:01:06;100258.72;;;16.70;100.00
66560;BME280;53413;49.878;8.142;2023-07-09T02:03:32;100262.31;;;16.69;100.00
66560;BME280;53413;49.878;8.142;2023-07-09T02:05:57;100262.41;;;16.67;100.00
66560;BME280;53413;49.878;8.142;2023-07-09T02:08:24;100268.75;;;16.65;100.00
66560;BME280;53413;49.878;8.142;2023-07-09T02:10:50;100269.75;;;16.62;100.00
66560;BME280;53413;49.878;8.142;2023-07-09T02:13:16;100271.75;;;16.58;100.00
66560;BME280;53413;49.878;8.142;2023-07-09T02:15:42;100271.91;;;16.55;100.00
66560;BME280;53413;49.878;8.142;2023-07-09T02:18:14;100269.47;;;16.52;100.00
66560;BME280;53413;49.878;8.142;2023-07-09T02:20:40;100271.41;;;16.49;100.00
66560;BME280;53413;49.878;8.142;2023-07-09T02:23:07;100276.81;;;16.47;100.00
66560;BME280;53413;49.878;8.142;2023-07-09T02:25:32;100276.91;;;16.45;100.00
66560;BME280;53413;49.878;8.142;2023-07-09T02:27:58;100273.50;;;16.43;100.00
66560;BME280;53413;49.878;8.142;2023-07-09T02:30:24;100271.91;;;16.41;100.00
66560;BME280;53413;49.878;8.142;2023-07-09T02:32:49;100272.06;;;16.38;100.00
66560;BME280;53413;49.878;8.142;2023-07-09T02:35:15;100267.72;;;16.37;100.00
66560;BME280;53413;49.878;8.142;2023-07-09T02:37:40;100277.53;;;16.35;100.00
66560;BME280;53413;49.878;8.142;2023-07-09T02:40:08;100279.34;;;16.34;100.00
66560;BME280;53413;49.878;8.142;2023-07-09T02:42:33;100275.00;;;16.33;100.00
66560;BME280;53413;49.878;8.142;2023-07-09T02:44:59;100284.91;;;16.29;100.00
66560;BME280;53413;49.878;8.142;2023-07-09T02:47:24;100292.06;;;16.27;100.00
66560;BME280;53413;49.878;8.142;2023-07-09T02:49:49;100288.81;;;16.22;100.00
66560;BME280;53413;49.878;8.142;2023-07-09T02:52:15;100296.09;;;16.19;100.00
66560;BME280;53413;49.878;8.142;2023-07-09T02:54:40;100298.13;;;16.13;100.00
66560;BME280;53413;49.878;8.142;2023-07-09T02:57:06;100301.03;;;16.09;100.00
66560;BME280;53413;49.878;8.142;2023-07-09T02:59:32;100297.81;;;16.04;100.00
66560;BME280;53413;49.878;8.142;2023-07-09T03:01:58;100297.97;;;16.00;100.00
66560;BME280;53413;49.878;8.142;2023-07-09T03:04:24;100299.84;;;15.98;100.00
66560;BME280;53413;49.878;8.142;2023-07-09T03:06:49;100300.78;;;15.97;100.00
66560;BME280;53413;49.878;8.142;2023-07-09T03:09:15;100304.38;;;15.96;100.00
66560;BME280;53413;49.878;8.142;2023-07-09T03:11:40;100307.94;;;15.95;100.00
66560;BME280;53413;49.878;8.142;2023-07-09T03:14:06;100307.00;;;15.96;100.00
66560;BME280;53413;49.878;8.142;2023-07-09T03:16:33;100308.72;;;15.97;100.00
66560;BME280;53413;49.878;8.142;2023-07-09T03:18:59;100314.94;;;15.96;100.00
66560;BME280;53413;49.878;8.142;2023-07-09T03:21:26;100323.91;;;15.94;100.00
66560;BME280;53413;49.878;8.142;2023-07-09T03:23:52;100326.63;;;15.92;100.00
66560;BME280;53413;49.878;8.142;2023-07-09T03:26:18;100331.00;;;15.93;100.00
66560;BME280;53413;49.878;8.142;2023-07-09T03:28:44;100328.25;;;15.95;100.00
66560;BME280;53413;49.878;8.142;2023-07-09T03:31:09;100322.88;;;15.96;100.00
66560;BME280;53413;49.878;8.142;2023-07-09T03:33:34;100327.22;;;15.97;100.00
66560;BME280;53413;49.878;8.142;2023-07-09T03:36:00;100324.66;;;15.96;100.00
66560;BME280;53413;49.878;8.142;2023-07-09T03:38:25;100330.78;;;15.96;100.00
66560;BME280;53413;49.878;8.142;2023-07-09T03:40:52;100333.28;;;15.99;100.00
66560;BME280;53413;49.878;8.142;2023-07-09T03:43:20;100336.59;;;16.03;100.00
66560;BME280;53413;49.878;8.142;2023-07-09T03:45:46;100336.44;;;16.06;100.00
66560;BME280;53413;49.878;8.142;2023-07-09T03:48:12;100337.09;;;16.10;100.00
66560;BME280;53413;49.878;8.142;2023-07-09T03:50:38;100338.66;;;16.14;100.00
66560;BME280;53413;49.878;8.142;2023-07-09T03:53:04;100345.44;;;16.18;100.00
66560;BME280;53413;49.878;8.142;2023-07-09T03:55:31;100339.81;;;16.24;100.00
66560;BME280;53413;49.878;8.142;2023-07-09T03:57:56;100348.25;;;16.31;100.00
66560;BME280;53413;49.878;8.142;2023-07-09T04:00:22;100333.66;;;16.40;100.00
66560;BME280;53413;49.878;8.142;2023-07-09T04:02:49;100345.41;;;16.50;100.00
66560;BME280;53413;49.878;8.142;2023-07-09T04:05:14;100342.13;;;16.61;100.00
66560;BME280;53413;49.878;8.142;2023-07-09T04:07:40;100335.28;;;16.73;100.00
66560;BME280;53413;49.878;8.142;2023-07-09T04:10:06;100340.03;;;16.82;100.00
66560;BME280;53413;49.878;8.142;2023-07-09T04:12:32;100332.47;;;16.90;100.00
66560;BME280;53413;49.878;8.142;2023-07-09T04:14:57;100344.28;;;17.01;100.00
66560;BME280;53413;49.878;8.142;2023-07-09T04:17:22;100334.06;;;17.09;100.00
66560;BME280;53413;49.878;8.142;2023-07-09T04:19:50;100334.25;;;17.20;100.00
66560;BME280;53413;49.878;8.142;2023-07-09T04:22:17;100338.03;;;17.31;100.00
66560;BME280;53413;49.878;8.142;2023-07-09T04:24:43;100330.28;;;17.42;100.00
66560;BME280;53413;49.878;8.142;2023-07-09T04:27:08;100331.34;;;17.54;100.00
66560;BME280;53413;49.878;8.142;2023-07-09T04:29:34;100334.06;;;17.67;100.00
66560;BME280;53413;49.878;8.142;2023-07-09T04:32:04;100332.53;;;17.77;100.00
66560;BME280;53413;49.878;8.142;2023-07-09T04:34:29;100337.91;;;17.90;100.00
66560;BME280;53413;49.878;8.142;2023-07-09T04:36:55;100338.94;;;18.02;100.00
66560;BME280;53413;49.878;8.142;2023-07-09T04:39:20;100331.91;;;18.15;100.00
66560;BME280;53413;49.878;8.142;2023-07-09T04:41:45;100341.72;;;18.28;100.00
66560;BME280;53413;49.878;8.142;2023-07-09T04:44:11;100333.25;;;18.36;100.00
66560;BME280;53413;49.878;8.142;2023-07-09T04:46:36;100337.63;;;18.50;100.00
66560;BME280;53413;49.878;8.142;2023-07-09T04:49:03;100333.97;;;18.65;100.00
66560;BME280;53413;49.878;8.142;2023-07-09T04:51:29;100336.56;;;18.80;100.00
66560;BME280;53413;49.878;8.142;2023-07-09T04:53:55;100333.72;;;18.96;100.00
66560;BME280;53413;49.878;8.142;2023-07-09T04:56:21;100324.72;;;19.11;100.00
66560;BME280;53413;49.878;8.142;2023-07-09T04:58:46;100330.66;;;19.28;100.00
66560;BME280;53413;49.878;8.142;2023-07-09T05:01:11;100334.91;;;19.43;100.00
66560;BME280;53413;49.878;8.142;2023-07-09T05:03:37;100332.94;;;19.58;100.00
66560;BME280;53413;49.878;8.142;2023-07-09T05:06:04;100333.56;;;19.75;100.00
66560;BME280;53413;49.878;8.142;2023-07-09T05:08:30;100330.25;;;19.84;100.00
66560;BME280;53413;49.878;8.142;2023-07-09T05:10:56;100328.44;;;19.97;100.00
66560;BME280;53413;49.878;8.142;2023-07-09T05:13:24;100326.56;;;20.11;100.00
66560;BME280;53413;49.878;8.142;2023-07-09T05:15:50;100331.38;;;20.30;100.00
66560;BME280;53413;49.878;8.142;2023-07-09T05:18:16;100329.16;;;20.48;100.00
66560;BME280;53413;49.878;8.142;2023-07-09T05:20:42;100332.59;;;20.61;100.00
66560;BME280;53413;49.878;8.142;2023-07-09T05:23:09;100331.97;;;20.82;100.00
66560;BME280;53413;49.878;8.142;2023-07-09T05:25:34;100330.78;;;20.98;100.00
66560;BME280;53413;49.878;8.142;2023-07-09T05:27:59;100327.56;;;21.17;100.00
66560;BME280;53413;49.878;8.142;2023-07-09T05:30:25;100328.25;;;21.42;100.00
66560;BME280;53413;49.878;8.142;2023-07-09T05:32:51;100329.38;;;21.62;100.00
66560;BME280;53413;49.878;8.142;2023-07-09T05:35:19;100330.31;;;21.83;100.00
66560;BME280;53413;49.878;8.142;2023-07-09T05:37:44;100333.59;;;21.98;100.00
66560;BME280;53413;49.878;8.142;2023-07-09T05:40:10;100331.81;;;22.20;100.00
66560;BME280;53413;49.878;8.142;2023-07-09T05:42:35;100327.75;;;22.49;100.00
66560;BME280;53413;49.878;8.142;2023-07-09T05:45:00;100330.13;;;24.77;100.00
66560;BME280;53413;49.878;8.142;2023-07-09T05:47:26;100318.72;;;28.92;76.01
66560;BME280;53413;49.878;8.142;2023-07-09T05:49:52;100335.81;;;32.08;59.71
66560;BME280;53413;49.878;8.142;2023-07-09T05:52:19;100340.75;;;34.23;51.03
66560;BME280;53413;49.878;8.142;2023-07-09T05:54:45;100347.19;;;35.50;46.68
66560;BME280;53413;49.878;8.142;2023-07-09T05:57:10;100339.88;;;36.79;43.02
66560;BME280;53413;49.878;8.142;2023-07-09T05:59:36;100342.34;;;37.80;40.96
66560;BME280;53413;49.878;8.142;2023-07-09T06:02:02;100343.34;;;38.83;38.85
66560;BME280;53413;49.878;8.142;2023-07-09T06:04:28;100340.69;;;40.39;37.22
66560;BME280;53413;49.878;8.142;2023-07-09T06:06:55;100352.09;;;41.66;34.28
66560;BME280;53413;49.878;8.142;2023-07-09T06:09:21;100346.41;;;42.33;33.45
66560;BME280;53413;49.878;8.142;2023-07-09T06:11:46;100349.28;;;43.29;31.78
66560;BME280;53413;49.878;8.142;2023-07-09T06:14:12;100358.31;;;43.98;30.70
66560;BME280;53413;49.878;8.142;2023-07-09T06:16:37;100353.38;;;44.57;29.89
66560;BME280;53413;49.878;8.142;2023-07-09T06:19:02;100347.16;;;45.27;28.82
66560;BME280;53413;49.878;8.142;2023-07-09T06:21:28;100342.19;;;45.74;27.82
66560;BME280;53413;49.878;8.142;2023-07-09T06:23:54;100342.84;;;46.35;27.41
66560;BME280;53413;49.878;8.142;2023-07-09T06:26:19;100339.25;;;46.35;26.20
66560;BME280;53413;49.878;8.142;2023-07-09T06:28:45;100342.03;;;46.00;26.45
66560;BME280;53413;49.878;8.142;2023-07-09T06:31:10;100351.78;;;46.27;26.08
66560;BME280;53413;49.878;8.142;2023-07-09T06:33:35;100346.84;;;47.07;25.91
66560;BME280;53413;49.878;8.142;2023-07-09T06:36:02;100345.06;;;47.98;23.73
66560;BME280;53413;49.878;8.142;2023-07-09T06:38:28;100338.31;;;48.04;23.96
66560;BME280;53413;49.878;8.142;2023-07-09T06:40:54;100333.50;;;49.27;22.92
66560;BME280;53413;49.878;8.142;2023-07-09T06:43:20;100339.34;;;49.99;21.78
66560;BME280;53413;49.878;8.142;2023-07-09T06:46:04;100338.28;;;50.09;22.16
66560;BME280;53413;49.878;8.142;2023-07-09T06:48:30;100334.66;;;50.94;21.80
66560;BME280;53413;49.878;8.142;2023-07-09T06:50:58;100337.63;;;51.06;20.86
66560;BME280;53413;49.878;8.142;2023-07-09T06:53:24;100336.34;;;50.41;21.30
66560;BME280;53413;49.878;8.142;2023-07-09T06:55:51;100340.91;;;51.00;20.87
66560;BME280;53413;49.878;8.142;2023-07-09T06:58:28;100334.03;;;51.15;20.45
66560;BME280;53413;49.878;8.142;2023-07-09T07:00:55;100342.31;;;51.72;20.47
66560;BME280;53413;49.878;8.142;2023-07-09T07:03:21;100348.00;;;52.20;20.11
66560;BME280;53413;49.878;8.142;2023-07-09T07:05:49;100339.06;;;52.44;19.98
66560;BME280;53413;49.878;8.142;2023-07-09T07:08:18;100342.16;;;52.90;19.29
66560;BME280;53413;49.878;8.142;2023-07-09T07:10:45;100334.59;;;53.12;19.41
66560;BME280;53413;49.878;8.142;2023-07-09T07:13:12;100327.34;;;53.62;18.88
66560;BME280;53413;49.878;8.142;2023-07-09T07:15:38;100327.94;;;54.01;18.25
66560;BME280;53413;49.878;8.142;2023-07-09T07:18:04;100327.84;;;53.98;18.18
66560;BME280;53413;49.878;8.142;2023-07-09T07:20:30;100324.03;;;53.81;18.69
66560;BME280;53413;49.878;8.142;2023-07-09T07:22:56;100317.41;;;54.44;17.95
66560;BME280;53413;49.878;8.142;2023-07-09T07:25:22;100320.78;;;55.00;17.69
66560;BME280;53413;49.878;8.142;2023-07-09T07:27:47;100306.47;;;55.30;17.37
66560;BME280;53413;49.878;8.142;2023-07-09T07:30:13;100302.78;;;55.42;17.27
66560;BME280;53413;49.878;8.142;2023-07-09T07:32:43;100308.09;;;54.65;17.47
66560;BME280;53413;49.878;8.142;2023-07-09T07:35:08;100306.78;;;54.63;17.39
66560;BME280;53413;49.878;8.142;2023-07-09T07:37:34;100301.16;;;54.87;16.83
66560;BME280;53413;49.878;8.142;2023-07-09T07:40:00;100306.69;;;54.59;17.36
66560;BME280;53413;49.878;8.142;2023-07-09T07:42:25;100309.63;;;55.16;16.78
66560;BME280;53413;49.878;8.142;2023-07-09T07:44:51;100313.00;;;55.34;16.67
66560;BME280;53413;49.878;8.142;2023-07-09T07:47:17;100319.16;;;54.99;16.70
66560;BME280;53413;49.878;8.142;2023-07-09T07:49:43;100317.53;;;55.51;16.80
66560;BME280;53413;49.878;8.142;2023-07-09T07:52:08;100308.03;;;55.27;16.64
66560;BME280;53413;49.878;8.142;2023-07-09T07:54:33;100298.63;;;55.35;16.65
66560;BME280;53413;49.878;8.142;2023-07-09T07:56:59;100310.84;;;56.16;16.21
66560;BME280;53413;49.878;8.142;2023-07-09T07:59:25;100320.28;;;56.72;16.02
66560;BME280;53413;49.878;8.142;2023-07-09T08:01:50;100328.53;;;57.36;15.67
66560;BME280;53413;49.878;8.142;2023-07-09T08:04:15;100320.56;;;57.18;15.94
66560;BME280;53413;49.878;8.142;2023-07-09T08:06:41;100316.69;;;57.46;15.75
66560;BME280;53413;49.878;8.142;2023-07-09T08:09:07;100317.34;;;57.40;15.84
66560;BME280;53413;49.878;8.142;2023-07-09T08:11:32;100317.22;;;56.97;16.02
66560;BME280;53413;49.878;8.142;2023-07-09T08:13:58;100310.13;;;57.03;15.76
66560;BME280;53413;49.878;8.142;2023-07-09T08:16:23;100301.78;;;57.26;16.04
66560;BME280;53413;49.878;8.142;2023-07-09T08:18:49;100302.28;;;57.71;15.68
66560;BME280;53413;49.878;8.142;2023-07-09T08:21:16;100297.75;;;58.09;15.43
66560;BME280;53413;49.878;8.142;2023-07-09T08:23:42;100298.75;;;57.98;15.57
66560;BME280;53413;49.878;8.142;2023-07-09T08:26:07;100297.47;;;57.95;15.62
66560;BME280;53413;49.878;8.142;2023-07-09T08:28:34;100295.53;;;58.73;15.20
66560;BME280;53413;49.878;8.142;2023-07-09T08:31:00;100295.66;;;58.83;14.77
66560;BME280;53413;49.878;8.142;2023-07-09T08:33:26;100287.50;;;58.75;15.10
66560;BME280;53413;49.878;8.142;2023-07-09T08:35:52;100299.84;;;58.93;15.12
66560;BME280;53413;49.878;8.142;2023-07-09T08:38:18;100293.09;;;59.01;14.86
66560;BME280;53413;49.878;8.142;2023-07-09T08:49:18;100298.59;;;59.93;14.39
66560;BME280;53413;49.878;8.142;2023-07-09T08:51:47;100290.97;;;60.49;14.40
66560;BME280;53413;49.878;8.142;2023-07-09T08:54:22;100285.16;;;60.28;14.19
66560;BME280;53413;49.878;8.142;2023-07-09T08:56:50;100294.09;;;60.37;14.08
66560;BME280;53413;49.878;8.142;2023-07-09T08:59:18;100287.88;;;59.72;14.17
66560;BME280;53413;49.878;8.142;2023-07-09T09:01:52;100290.44;;;59.50;14.58
66560;BME280;53413;49.878;8.142;2023-07-09T09:04:24;100290.06;;;59.48;14.46
66560;BME280;53413;49.878;8.142;2023-07-09T09:07:07;100295.41;;;59.98;14.02
66560;BME280;53413;49.878;8.142;2023-07-09T09:10:07;100287.94;;;60.20;13.98
66560;BME280;53413;49.878;8.142;2023-07-09T09:12:38;100286.31;;;60.19;14.14
66560;BME280;53413;49.878;8.142;2023-07-09T09:15:13;100282.91;;;60.55;13.53
66560;BME280;53413;49.878;8.142;2023-07-09T09:17:41;100277.41;;;60.21;13.52
66560;BME280;53413;49.878;8.142;2023-07-09T09:20:11;100281.94;;;59.84;14.04
66560;BME280;53413;49.878;8.142;2023-07-09T09:22:48;100275.84;;;59.82;14.31
66560;BME280;53413;49.878;8.142;2023-07-09T09:27:40;100276.53;;;60.73;13.32
66560;BME280;53413;49.878;8.142;2023-07-09T09:30:14;100274.00;;;61.49;13.50
66560;BME280;53413;49.878;8.142;2023-07-09T09:32:44;100270.72;;;61.28;12.96
66560;BME280;53413;49.878;8.142;2023-07-09T09:35:14;100269.41;;;61.04;13.53
66560;BME280;53413;49.878;8.142;2023-07-09T09:37:40;100273.84;;;60.31;13.75
66560;BME280;53413;49.878;8.142;2023-07-09T09:40:08;100273.19;;;60.52;13.54
66560;BME280;53413;49.878;8.142;2023-07-09T09:42:34;100278.75;;;60.38;13.79
66560;BME280;53413;49.878;8.142;2023-07-09T09:45:00;100282.91;;;60.03;13.56
66560;BME280;53413;49.878;8.142;2023-07-09T09:47:26;100278.59;;;59.34;14.14
66560;BME280;53413;49.878;8.142;2023-07-09T09:49:53;100265.03;;;58.85;14.11
66560;BME280;53413;49.878;8.142;2023-07-09T09:52:19;100262.84;;;58.72;14.32
66560;BME280;53413;49.878;8.142;2023-07-09T09:54:56;100253.59;;;58.44;14.28
66560;BME280;53413;49.878;8.142;2023-07-09T09:57:27;100244.25;;;58.17;14.42
66560;BME280;53413;49.878;8.142;2023-07-09T09:59:54;100247.59;;;57.33;14.79
66560;BME280;53413;49.878;8.142;2023-07-09T10:02:22;100247.97;;;56.56;15.27
66560;BME280;53413;49.878;8.142;2023-07-09T10:04:49;100249.53;;;56.22;15.37
66560;BME280;53413;49.878;8.142;2023-07-09T10:07:27;100239.69;;;55.67;15.27
66560;BME280;53413;49.878;8.142;2023-07-09T10:09:55;100233.94;;;55.19;15.81
66560;BME280;53413;49.878;8.142;2023-07-09T10:12:39;100236.72;;;55.60;15.61
66560;BME280;53413;49.878;8.142;2023-07-09T10:17:59;100223.94;;;55.34;15.96
66560;BME280;53413;49.878;8.142;2023-07-09T10:20:42;100216.97;;;54.75;16.47
66560;BME280;53413;49.878;8.142;2023-07-09T10:34:03;100210.88;;;43.58;23.88
66560;BME280;53413;49.878;8.142;2023-07-09T10:39:11;100211.75;;;41.93;25.64
66560;BME280;53413;49.878;8.142;2023-07-09T10:41:40;100203.75;;;41.32;26.10
66560;BME280;53413;49.878;8.142;2023-07-09T10:44:19;100201.13;;;40.53;27.00
66560;BME280;53413;49.878;8.142;2023-07-09T10:46:49;100206.81;;;40.12;26.75
66560;BME280;53413;49.878;8.142;2023-07-09T10:49:17;100200.97;;;39.58;28.26
66560;BME280;53413;49.878;8.142;2023-07-09T10:51:52;100205.66;;;39.16;28.42
66560;BME280;53413;49.878;8.142;2023-07-09T10:57:11;100203.63;;;38.71;28.47
66560;BME280;53413;49.878;8.142;2023-07-09T10:59:40;100209.59;;;38.44;28.41
66560;BME280;53413;49.878;8.142;2023-07-09T11:02:13;100201.28;;;38.15;28.49
66560;BME280;53413;49.878;8.142;2023-07-09T11:04:48;100201.72;;;37.88;29.19
66560;BME280;53413;49.878;8.142;2023-07-09T11:07:21;100205.94;;;37.84;29.16
66560;BME280;53413;49.878;8.142;2023-07-09T11:09:49;100201.13;;;37.98;28.81
66560;BME280;53413;49.878;8.142;2023-07-09T11:12:19;100204.50;;;38.24;28.95
66560;BME280;53413;49.878;8.142;2023-07-09T11:15:09;100198.06;;;38.30;29.36
66560;BME280;53413;49.878;8.142;2023-07-09T11:17:39;100199.38;;;38.27;28.90
66560;BME280;53413;49.878;8.142;2023-07-09T11:20:18;100193.19;;;38.32;29.13
66560;BME280;53413;49.878;8.142;2023-07-09T11:22:54;100193.44;;;38.30;28.98
66560;BME280;53413;49.878;8.142;2023-07-09T11:25:45;100193.16;;;38.20;28.84
66560;BME280;53413;49.878;8.142;2023-07-09T11:28:11;100181.28;;;38.26;29.10
66560;BME280;53413;49.878;8.142;2023-07-09T11:30:49;100184.84;;;38.15;28.45
66560;BME280;53413;49.878;8.142;2023-07-09T11:33:17;100182.13;;;38.15;28.40
66560;BME280;53413;49.878;8.142;2023-07-09T11:35:48;100184.59;;;38.16;28.12
66560;BME280;53413;49.878;8.142;2023-07-09T11:38:20;100182.47;;;38.18;29.13
66560;BME280;53413;49.878;8.142;2023-07-09T11:40:55;100183.19;;;38.14;29.21
66560;BME280;53413;49.878;8.142;2023-07-09T11:43:34;100185.44;;;37.93;28.72
66560;BME280;53413;49.878;8.142;2023-07-09T11:46:24;100181.63;;;37.94;28.73
66560;BME280;53413;49.878;8.142;2023-07-09T11:48:52;100178.53;;;38.02;28.87
66560;BME280;53413;49.878;8.142;2023-07-09T11:51:53;100184.13;;;37.96;28.78
66560;BME280;53413;49.878;8.142;2023-07-09T11:54:19;100177.47;;;38.03;29.03
66560;BME280;53413;49.878;8.142;2023-07-09T11:56:59;100178.66;;;38.08;28.50
66560;BME280;53413;49.878;8.142;2023-07-09T11:59:26;100182.72;;;37.93;27.87
66560;BME280;53413;49.878;8.142;2023-07-09T12:01:53;100182.09;;;37.91;28.38
66560;BME280;53413;49.878;8.142;2023-07-09T12:04:23;100173.84;;;37.79;28.24
66560;BME280;53413;49.878;8.142;2023-07-09T12:06:51;100172.63;;;37.63;29.29
66560;BME280;53413;49.878;8.142;2023-07-09T12:09:20;100158.75;;;37.34;28.56
66560;BME280;53413;49.878;8.142;2023-07-09T12:11:50;100157.66;;;37.35;28.25
66560;BME280;53413;49.878;8.142;2023-07-09T12:14:21;100152.63;;;37.51;28.10
66560;BME280;53413;49.878;8.142;2023-07-09T12:16:51;100155.41;;;37.63;28.69
66560;BME280;53413;49.878;8.142;2023-07-09T12:19:23;100151.59;;;37.64;28.26
66560;BME280;53413;49.878;8.142;2023-07-09T12:21:52;100142.91;;;37.55;28.34
66560;BME280;53413;49.878;8.142;2023-07-09T12:24:28;100133.28;;;37.52;28.64
66560;BME280;53413;49.878;8.142;2023-07-09T12:27:00;100136.03;;;37.64;28.54
66560;BME280;53413;49.878;8.142;2023-07-09T12:29:27;100138.41;;;37.72;27.50
66560;BME280;53413;49.878;8.142;2023-07-09T12:31:52;100134.84;;;37.84;27.22
66560;BME280;53413;49.878;8.142;2023-07-09T12:34:18;100131.16;;;37.78;27.88
66560;BME280;53413;49.878;8.142;2023-07-09T12:36:48;100117.72;;;37.77;28.08
66560;BME280;53413;49.878;8.142;2023-07-09T12:39:16;100120.09;;;37.73;28.38
66560;BME280;53413;49.878;8.142;2023-07-09T12:41:44;100116.66;;;37.78;28.39
66560;BME280;53413;49.878;8.142;2023-07-09T12:44:18;100122.38;;;37.76;27.74
66560;BME280;53413;49.878;8.142;2023-07-09T12:46:45;100113.31;;;37.76;27.63
66560;BME280;53413;49.878;8.142;2023-07-09T12:49:23;100107.50;;;37.84;27.67
66560;BME280;53413;49.878;8.142;2023-07-09T12:51:49;100106.00;;;37.88;27.63
66560;BME280;53413;49.878;8.142;2023-07-09T12:54:18;100098.47;;;37.95;28.48
66560;BME280;53413;49.878;8.142;2023-07-09T12:56:44;100093.81;;;37.84;28.12
66560;BME280;53413;49.878;8.142;2023-07-09T12:59:24;100095.25;;;37.63;28.00
66560;BME280;53413;49.878;8.142;2023-07-09T13:02:00;100095.84;;;37.53;27.64
66560;BME280;53413;49.878;8.142;2023-07-09T13:04:33;100087.38;;;37.42;27.15
66560;BME280;53413;49.878;8.142;2023-07-09T13:07:01;100085.00;;;37.46;27.64
66560;BME280;53413;49.878;8.142;2023-07-09T13:09:27;100080.25;;;37.41;27.80
66560;BME280;53413;49.878;8.142;2023-07-09T13:11:54;100088.44;;;37.41;27.69
66560;BME280;53413;49.878;8.142;2023-07-09T13:14:23;100085.47;;;37.43;27.88
66560;BME280;53413;49.878;8.142;2023-07-09T13:16:49;100079.91;;;37.50;27.26
66560;BME280;53413;49.878;8.142;2023-07-09T13:19:15;100069.91;;;37.43;27.29
66560;BME280;53413;49.878;8.142;2023-07-09T13:21:41;100078.22;;;37.49;27.65
66560;BME280;53413;49.878;8.142;2023-07-09T13:24:23;100074.31;;;37.56;27.32